sensor_id;sensor_type;location;lat;lon;timestamp;temperature;humidity
21895;DHT22;11112;51.270;7.224;2024-01-30T00:02:20;9.50;99.90
21895;DHT22;11112;51.270;7.224;2024-01-30T00:04:48;9.60;99.90
21895;DHT22;11112;51.270;7.224;2024-01-30T00:07:15;9.50;99.90
21895;DHT22;11112;51.270;7.224;2024-01-30T00:09:42;9.50;99.90
21895;DHT22;11112;51.270;7.224;2024-01-30T00:12:09;9.50;99.90
21895;DHT22;11112;51.270;7.224;2024-01-30T00:14:36;9.50;99.90
21895;DHT22;11112;51.270;7.224;2024-01-30T00:17:05;9.50;99.90
21895;DHT22;11112;51.270;7.224;2024-01-30T00:19:31;9.50;99.90
21895;DHT22;11112;51.270;7.224;2024-01-30T00:21:59;9.50;99.90
21895;DHT22;11112;51.270;7.224;2024-01-30T00:24:26;9.50;99.90
21895;DHT22;11112;51.270;7.224;2024-01-30T00:26:53;9.50;99.90
21895;DHT22;11112;51.270;7.224;2024-01-30T00:29:20;9.50;99.90
21895;DHT22;11112;51.270;7.224;2024-01-30T00:31:48;9.50;99.90
21895;DHT22;11112;51.270;7.224;2024-01-30T00:34:16;9.50;99.90
21895;DHT22;11112;51.270;7.224;2024-01-30T00:36:43;9.40;99.90
21895;DHT22;11112;51.270;7.224;2024-01-30T00:39:10;9.40;99.90
21895;DHT22;11112;51.270;7.224;2024-01-30T00:41:37;9.30;99.90
21895;DHT22;11112;51.270;7.224;2024-01-30T00:44:04;9.30;99.90
21895;DHT22;11112;51.270;7.224;2024-01-30T00:46:31;9.30;99.90
21895;DHT22;11112;51.270;7.224;2024-01-30T00:48:58;9.30;99.90
21895;DHT22;11112;51.270;7.224;2024-01-30T00:51:27;9.20;99.90
21895;DHT22;11112;51.270;7.224;2024-01-30T00:53:55;9.20;99.90
21895;DHT22;11112;51.270;7.224;2024-01-30T00:56:22;9.20;99.90
21895;DHT22;11112;51.270;7.224;2024-01-30T00:58:49;9.20;99.90
21895;DHT22;11112;51.270;7.224;2024-01-30T01:01:16;9.20;99.90
21895;DHT22;11112;51.270;7.224;2024-01-30T01:03:43;9.20;99.90
21895;DHT22;11112;51.270;7.224;2024-01-30T01:06:10;9.20;99.90
21895;DHT22;11112;51.270;7.224;2024-01-30T01:08:40;9.20;99.90
21895;DHT22;11112;51.270;7.224;2024-01-30T01:11:07;9.20;99.90
21895;DHT22;11112;51.270;7.224;2024-01-30T01:13:35;9.20;99.90
21895;DHT22;11112;51.270;7.224;2024-01-30T01:16:02;9.20;99.90
21895;DHT22;11112;51.270;7.224;2024-01-30T01:18:30;9.20;99.90
21895;DHT22;11112;51.270;7.224;2024-01-30T01:20:57;9.20;99.90
21895;DHT22;11112;51.270;7.224;2024-01-30T01:23:24;9.20;99.90
21895;DHT22;11112;51.270;7.224;2024-01-30T01:25:53;9.20;99.90
21895;DHT22;11112;51.270;7.224;2024-01-30T01:28:20;9.20;99.90
21895;DHT22;11112;51.270;7.224;2024-01-30T01:30:47;9.20;99.90
21895;DHT22;11112;51.270;7.224;2024-01-30T01:33:14;9.20;99.90
21895;DHT22;11112;51.270;7.224;2024-01-30T01:35:41;9.20;99.90
21895;DHT22;11112;51.270;7.224;2024-01-30T01:38:08;9.20;99.90
21895;DHT22;11112;51.270;7.224;2024-01-30T01:40:35;9.30;99.90
21895;DHT22;11112;51.270;7.224;2024-01-30T01:43:06;9.30;99.90
21895;DHT22;11112;51.270;7.224;2024-01-30T01:45:33;9.20;99.90
21895;DHT22;11112;51.270;7.224;2024-01-30T01:47:59;9.20;99.90
21895;DHT22;11112;51.270;7.224;2024-01-30T01:50:26;9.30;99.90
21895;DHT22;11112;51.270;7.224;2024-01-30T01:52:54;9.20;99.90
21895;DHT22;11112;51.270;7.224;2024-01-30T01:55:22;9.20;99.90
21895;DHT22;11112;51.270;7.224;2024-01-30T01:57:52;9.20;99.90
21895;DHT22;11112;51.270;7.224;2024-01-30T02:00:21;9.20;99.90
21895;DHT22;11112;51.270;7.224;2024-01-30T02:02:48;9.20;99.90
21895;DHT22;11112;51.270;7.224;2024-01-30T02:05:17;9.20;99.90
21895;DHT22;11112;51.270;7.224;2024-01-30T02:07:44;9.20;99.90
21895;DHT22;11112;51.270;7.224;2024-01-30T02:10:11;9.20;99.90
21895;DHT22;11112;51.270;7.224;2024-01-30T02:12:38;9.20;99.90
21895;DHT22;11112;51.270;7.224;2024-01-30T02:15:06;9.20;99.90
21895;DHT22;11112;51.270;7.224;2024-01-30T02:17:34;9.20;99.90
21895;DHT22;11112;51.270;7.224;2024-01-30T02:20:02;9.20;99.90
21895;DHT22;11112;51.270;7.224;2024-01-30T02:22:33;9.20;99.90
21895;DHT22;11112;51.270;7.224;2024-01-30T02:25:01;9.20;99.90
21895;DHT22;11112;51.270;7.224;2024-01-30T02:27:28;9.20;99.90
21895;DHT22;11112;51.270;7.224;2024-01-30T02:29:55;9.20;99.90
21895;DHT22;11112;51.270;7.224;2024-01-30T02:32:22;9.20;99.90
21895;DHT22;11112;51.270;7.224;2024-01-30T02:34:50;9.20;99.90
21895;DHT22;11112;51.270;7.224;2024-01-30T02:37:17;9.20;99.90
21895;DHT22;11112;51.270;7.224;2024-01-30T02:39:46;9.20;99.90
21895;DHT22;11112;51.270;7.224;2024-01-30T02:42:13;9.20;99.90
21895;DHT22;11112;51.270;7.224;2024-01-30T02:44:40;9.20;99.90
21895;DHT22;11112;51.270;7.224;2024-01-30T02:47:07;9.20;99.90
21895;DHT22;11112;51.270;7.224;2024-01-30T02:49:34;9.20;99.90
21895;DHT22;11112;51.270;7.224;2024-01-30T02:52:01;9.20;99.90
21895;DHT22;11112;51.270;7.224;2024-01-30T02:54:29;9.10;99.90
21895;DHT22;11112;51.270;7.224;2024-01-30T02:56:58;9.20;99.90
21895;DHT22;11112;51.270;7.224;2024-01-30T02:59:25;9.10;99.90
21895;DHT22;11112;51.270;7.224;2024-01-30T03:01:55;9.10;99.90
21895;DHT22;11112;51.270;7.224;2024-01-30T03:04:22;9.10;99.90
21895;DHT22;11112;51.270;7.224;2024-01-30T03:06:49;9.10;99.90
21895;DHT22;11112;51.270;7.224;2024-01-30T03:09:17;9.20;99.90
21895;DHT22;11112;51.270;7.224;2024-01-30T03:11:44;9.20;99.90
21895;DHT22;11112;51.270;7.224;2024-01-30T03:14:15;9.10;99.90
21895;DHT22;11112;51.270;7.224;2024-01-30T03:16:42;9.20;99.90
21895;DHT22;11112;51.270;7.224;2024-01-30T03:19:10;9.20;99.90
21895;DHT22;11112;51.270;7.224;2024-01-30T03:21:37;9.20;99.90
21895;DHT22;11112;51.270;7.224;2024-01-30T03:24:04;9.20;99.90
21895;DHT22;11112;51.270;7.224;2024-01-30T03:26:32;9.20;99.90
21895;DHT22;11112;51.270;7.224;2024-01-30T03:28:59;9.20;99.90
21895;DHT22;11112;51.270;7.224;2024-01-30T03:31:27;9.20;99.90
21895;DHT22;11112;51.270;7.224;2024-01-30T03:33:54;9.20;99.90
21895;DHT22;11112;51.270;7.224;2024-01-30T03:36:21;9.20;99.90
21895;DHT22;11112;51.270;7.224;2024-01-30T03:38:48;9.20;99.90
21895;DHT22;11112;51.270;7.224;2024-01-30T03:41:15;9.20;99.90
21895;DHT22;11112;51.270;7.224;2024-01-30T03:43:43;9.30;99.90
21895;DHT22;11112;51.270;7.224;2024-01-30T03:46:12;9.20;99.90
21895;DHT22;11112;51.270;7.224;2024-01-30T03:48:41;9.20;99.90
21895;DHT22;11112;51.270;7.224;2024-01-30T03:51:08;9.20;99.90
21895;DHT22;11112;51.270;7.224;2024-01-30T03:53:39;9.20;99.90
21895;DHT22;11112;51.270;7.224;2024-01-30T03:56:07;9.20;99.90
21895;DHT22;11112;51.270;7.224;2024-01-30T03:58:34;9.20;99.90
21895;DHT22;11112;51.270;7.224;2024-01-30T04:01:01;9.20;99.90
21895;DHT22;11112;51.270;7.224;2024-01-30T04:03:29;9.20;99.90
21895;DHT22;11112;51.270;7.224;2024-01-30T04:05:57;9.20;99.90
21895;DHT22;11112;51.270;7.224;2024-01-30T04:08:24;9.20;99.90
21895;DHT22;11112;51.270;7.224;2024-01-30T04:10:52;9.20;99.90
21895;DHT22;11112;51.270;7.224;2024-01-30T04:13:19;9.20;99.90
21895;DHT22;11112;51.270;7.224;2024-01-30T04:15:46;9.20;99.90
21895;DHT22;11112;51.270;7.224;2024-01-30T04:18:13;9.20;99.90
21895;DHT22;11112;51.270;7.224;2024-01-30T04:20:40;9.20;99.90
21895;DHT22;11112;51.270;7.224;2024-01-30T04:23:08;9.20;99.90
21895;DHT22;11112;51.270;7.224;2024-01-30T04:25:36;9.20;99.90
21895;DHT22;11112;51.270;7.224;2024-01-30T04:28:03;9.20;99.90
21895;DHT22;11112;51.270;7.224;2024-01-30T04:30:30;9.20;99.90
21895;DHT22;11112;51.270;7.224;2024-01-30T04:32:57;9.20;99.90
21895;DHT22;11112;51.270;7.224;2024-01-30T04:35:24;9.20;99.90
21895;DHT22;11112;51.270;7.224;2024-01-30T04:37:52;9.20;99.90
21895;DHT22;11112;51.270;7.224;2024-01-30T04:40:21;9.20;99.90
21895;DHT22;11112;51.270;7.224;2024-01-30T04:42:48;9.20;99.90
21895;DHT22;11112;51.270;7.224;2024-01-30T04:45:16;9.20;99.90
21895;DHT22;11112;51.270;7.224;2024-01-30T04:47:43;9.20;99.90
21895;DHT22;11112;51.270;7.224;2024-01-30T04:50:10;9.20;99.90
21895;DHT22;11112;51.270;7.224;2024-01-30T04:52:37;9.20;99.90
21895;DHT22;11112;51.270;7.224;2024-01-30T04:55:04;9.20;99.90
21895;DHT22;11112;51.270;7.224;2024-01-30T04:57:34;9.20;99.90
21895;DHT22;11112;51.270;7.224;2024-01-30T05:00:01;9.20;99.90
21895;DHT22;11112;51.270;7.224;2024-01-30T05:02:31;9.10;99.90
21895;DHT22;11112;51.270;7.224;2024-01-30T05:04:58;9.10;99.90
21895;DHT22;11112;51.270;7.224;2024-01-30T05:07:25;9.10;99.90
21895;DHT22;11112;51.270;7.224;2024-01-30T05:09:52;9.10;99.90
21895;DHT22;11112;51.270;7.224;2024-01-30T05:12:19;9.10;99.90
21895;DHT22;11112;51.270;7.224;2024-01-30T05:14:48;9.10;99.90
21895;DHT22;11112;51.270;7.224;2024-01-30T05:17:15;9.10;99.90
21895;DHT22;11112;51.270;7.224;2024-01-30T05:19:42;9.20;99.90
21895;DHT22;11112;51.270;7.224;2024-01-30T05:22:10;9.20;99.90
21895;DHT22;11112;51.270;7.224;2024-01-30T05:24:40;9.20;99.90
21895;DHT22;11112;51.270;7.224;2024-01-30T05:27:08;9.10;99.90
21895;DHT22;11112;51.270;7.224;2024-01-30T05:29:35;9.20;99.90
21895;DHT22;11112;51.270;7.224;2024-01-30T05:32:04;9.20;99.90
21895;DHT22;11112;51.270;7.224;2024-01-30T05:34:32;9.20;99.90
21895;DHT22;11112;51.270;7.224;2024-01-30T05:36:59;9.20;99.90
21895;DHT22;11112;51.270;7.224;2024-01-30T05:39:26;9.20;99.90
21895;DHT22;11112;51.270;7.224;2024-01-30T05:41:53;9.20;99.90
21895;DHT22;11112;51.270;7.224;2024-01-30T05:44:20;9.10;99.90
21895;DHT22;11112;51.270;7.224;2024-01-30T05:46:47;9.10;99.90
21895;DHT22;11112;51.270;7.224;2024-01-30T05:49:15;9.10;99.90
21895;DHT22;11112;51.270;7.224;2024-01-30T05:51:42;9.10;99.90
21895;DHT22;11112;51.270;7.224;2024-01-30T05:54:09;9.10;99.90
21895;DHT22;11112;51.270;7.224;2024-01-30T05:56:36;9.20;99.90
21895;DHT22;11112;51.270;7.224;2024-01-30T05:59:03;9.10;99.90
21895;DHT22;11112;51.270;7.224;2024-01-30T06:01:31;9.10;99.90
21895;DHT22;11112;51.270;7.224;2024-01-30T06:03:58;9.10;99.90
21895;DHT22;11112;51.270;7.224;2024-01-30T06:06:27;9.10;99.90
21895;DHT22;11112;51.270;7.224;2024-01-30T06:08:54;9.10;99.90
21895;DHT22;11112;51.270;7.224;2024-01-30T06:11:21;9.10;99.90
21895;DHT22;11112;51.270;7.224;2024-01-30T06:13:48;9.10;99.90
21895;DHT22;11112;51.270;7.224;2024-01-30T06:16:15;9.10;99.90
21895;DHT22;11112;51.270;7.224;2024-01-30T06:18:42;9.10;99.90
21895;DHT22;11112;51.270;7.224;2024-01-30T06:21:09;9.10;99.90
21895;DHT22;11112;51.270;7.224;2024-01-30T06:23:38;9.10;99.90
21895;DHT22;11112;51.270;7.224;2024-01-30T06:26:06;9.10;99.90
21895;DHT22;11112;51.270;7.224;2024-01-30T06:28:33;9.10;99.90
21895;DHT22;11112;51.270;7.224;2024-01-30T06:31:01;9.10;99.90
21895;DHT22;11112;51.270;7.224;2024-01-30T06:33:28;9.20;99.90
21895;DHT22;11112;51.270;7.224;2024-01-30T06:35:55;9.20;99.90
21895;DHT22;11112;51.270;7.224;2024-01-30T06:38:22;9.20;99.90
21895;DHT22;11112;51.270;7.224;2024-01-30T06:40:51;9.20;99.90
21895;DHT22;11112;51.270;7.224;2024-01-30T06:43:18;9.20;99.90
21895;DHT22;11112;51.270;7.224;2024-01-30T06:45:45;9.20;99.90
21895;DHT22;11112;51.270;7.224;2024-01-30T06:48:12;9.20;99.90
21895;DHT22;11112;51.270;7.224;2024-01-30T06:50:39;9.20;99.90
21895;DHT22;11112;51.270;7.224;2024-01-30T06:53:07;9.20;99.90
21895;DHT22;11112;51.270;7.224;2024-01-30T06:55:34;9.20;99.90
21895;DHT22;11112;51.270;7.224;2024-01-30T06:58:02;9.10;99.90
21895;DHT22;11112;51.270;7.224;2024-01-30T07:00:30;9.10;99.90
21895;DHT22;11112;51.270;7.224;2024-01-30T07:02:57;9.20;99.90
21895;DHT22;11112;51.270;7.224;2024-01-30T07:05:24;9.20;99.90
21895;DHT22;11112;51.270;7.224;2024-01-30T07:07:51;9.20;99.90
21895;DHT22;11112;51.270;7.224;2024-01-30T07:10:18;9.20;99.90
21895;DHT22;11112;51.270;7.224;2024-01-30T07:12:45;9.20;99.90
21895;DHT22;11112;51.270;7.224;2024-01-30T07:15:14;9.20;99.90
21895;DHT22;11112;51.270;7.224;2024-01-30T07:17:45;9.30;99.90
21895;DHT22;11112;51.270;7.224;2024-01-30T07:20:12;9.30;99.90
21895;DHT22;11112;51.270;7.224;2024-01-30T07:22:40;9.30;99.90
21895;DHT22;11112;51.270;7.224;2024-01-30T07:25:07;9.30;99.90
21895;DHT22;11112;51.270;7.224;2024-01-30T07:27:35;9.30;99.90
21895;DHT22;11112;51.270;7.224;2024-01-30T07:30:02;9.40;99.90
21895;DHT22;11112;51.270;7.224;2024-01-30T07:32:31;9.40;99.90
21895;DHT22;11112;51.270;7.224;2024-01-30T07:34:58;9.30;99.90
21895;DHT22;11112;51.270;7.224;2024-01-30T07:37:25;9.30;99.90
21895;DHT22;11112;51.270;7.224;2024-01-30T07:39:54;9.30;99.90
21895;DHT22;11112;51.270;7.224;2024-01-30T07:42:23;9.20;99.90
21895;DHT22;11112;51.270;7.224;2024-01-30T07:44:51;9.30;99.90
21895;DHT22;11112;51.270;7.224;2024-01-30T07:47:18;9.30;99.90
21895;DHT22;11112;51.270;7.224;2024-01-30T07:49:46;9.30;99.90
21895;DHT22;11112;51.270;7.224;2024-01-30T07:52:14;9.30;99.90
21895;DHT22;11112;51.270;7.224;2024-01-30T07:54:41;9.30;99.90
21895;DHT22;11112;51.270;7.224;2024-01-30T07:57:08;9.30;99.90
21895;DHT22;11112;51.270;7.224;2024-01-30T07:59:35;9.30;99.90
21895;DHT22;11112;51.270;7.224;2024-01-30T08:02:02;9.30;99.90
21895;DHT22;11112;51.270;7.224;2024-01-30T08:04:29;9.30;99.90
21895;DHT22;11112;51.270;7.224;2024-01-30T08:06:58;9.30;99.90
21895;DHT22;11112;51.270;7.224;2024-01-30T08:09:25;9.40;99.90
21895;DHT22;11112;51.270;7.224;2024-01-30T08:11:52;9.30;99.90
21895;DHT22;11112;51.270;7.224;2024-01-30T08:14:19;9.40;99.90
21895;DHT22;11112;51.270;7.224;2024-01-30T08:16:46;9.40;99.90
21895;DHT22;11112;51.270;7.224;2024-01-30T08:19:13;9.40;99.90
21895;DHT22;11112;51.270;7.224;2024-01-30T08:21:41;9.40;99.90
21895;DHT22;11112;51.270;7.224;2024-01-30T08:24:09;9.50;99.90
21895;DHT22;11112;51.270;7.224;2024-01-30T08:26:36;9.50;99.90
21895;DHT22;11112;51.270;7.224;2024-01-30T08:29:04;9.50;99.90
21895;DHT22;11112;51.270;7.224;2024-01-30T08:31:33;9.50;99.90
21895;DHT22;11112;51.270;7.224;2024-01-30T08:34:00;9.50;99.90
21895;DHT22;11112;51.270;7.224;2024-01-30T08:36:27;9.50;99.90
21895;DHT22;11112;51.270;7.224;2024-01-30T08:38:54;9.50;99.90
21895;DHT22;11112;51.270;7.224;2024-01-30T08:41:22;9.50;99.90
21895;DHT22;11112;51.270;7.224;2024-01-30T08:43:50;9.50;99.90
21895;DHT22;11112;51.270;7.224;2024-01-30T08:46:17;9.60;99.90
21895;DHT22;11112;51.270;7.224;2024-01-30T08:48:46;9.50;99.90
21895;DHT22;11112;51.270;7.224;2024-01-30T08:51:14;9.50;99.90
21895;DHT22;11112;51.270;7.224;2024-01-30T08:53:41;9.50;99.90
21895;DHT22;11112;51.270;7.224;2024-01-30T08:56:08;9.60;99.90
21895;DHT22;11112;51.270;7.224;2024-01-30T08:58:37;9.60;99.90
21895;DHT22;11112;51.270;7.224;2024-01-30T09:01:04;9.60;99.90
21895;DHT22;11112;51.270;7.224;2024-01-30T09:03:32;9.60;99.90
21895;DHT22;11112;51.270;7.224;2024-01-30T09:05:59;9.60;99.90
21895;DHT22;11112;51.270;7.224;2024-01-30T09:08:26;9.60;99.90
21895;DHT22;11112;51.270;7.224;2024-01-30T09:10:53;9.60;99.90
21895;DHT22;11112;51.270;7.224;2024-01-30T09:13:20;9.60;99.90
21895;DHT22;11112;51.270;7.224;2024-01-30T09:15:49;9.60;99.90
21895;DHT22;11112;51.270;7.224;2024-01-30T09:18:16;9.70;99.90
21895;DHT22;11112;51.270;7.224;2024-01-30T09:20:43;9.70;99.90
21895;DHT22;11112;51.270;7.224;2024-01-30T09:23:11;9.70;99.90
21895;DHT22;11112;51.270;7.224;2024-01-30T09:25:38;9.70;99.90
21895;DHT22;11112;51.270;7.224;2024-01-30T09:28:05;9.70;99.90
21895;DHT22;11112;51.270;7.224;2024-01-30T09:30:33;9.70;99.90
21895;DHT22;11112;51.270;7.224;2024-01-30T09:33:02;9.80;99.90
21895;DHT22;11112;51.270;7.224;2024-01-30T09:35:29;9.80;99.90
21895;DHT22;11112;51.270;7.224;2024-01-30T09:37:56;9.80;99.90
21895;DHT22;11112;51.270;7.224;2024-01-30T09:40:24;9.80;99.90
21895;DHT22;11112;51.270;7.224;2024-01-30T09:42:52;9.80;99.90
21895;DHT22;11112;51.270;7.224;2024-01-30T09:45:19;9.80;99.90
21895;DHT22;11112;51.270;7.224;2024-01-30T09:47:47;9.90;99.90
21895;DHT22;11112;51.270;7.224;2024-01-30T09:50:16;9.90;99.90
21895;DHT22;11112;51.270;7.224;2024-01-30T09:52:44;9.90;99.90
21895;DHT22;11112;51.270;7.224;2024-01-30T09:55:12;9.90;99.90
21895;DHT22;11112;51.270;7.224;2024-01-30T09:57:41;10.00;99.90
21895;DHT22;11112;51.270;7.224;2024-01-30T10:00:10;10.00;99.90
21895;DHT22;11112;51.270;7.224;2024-01-30T10:02:41;10.00;99.90
21895;DHT22;11112;51.270;7.224;2024-01-30T10:05:08;10.00;99.90
21895;DHT22;11112;51.270;7.224;2024-01-30T10:07:36;10.00;99.90
21895;DHT22;11112;51.270;7.224;2024-01-30T10:10:05;10.10;99.90
21895;DHT22;11112;51.270;7.224;2024-01-30T10:12:33;10.10;99.90
21895;DHT22;11112;51.270;7.224;2024-01-30T10:15:00;10.10;99.90
21895;DHT22;11112;51.270;7.224;2024-01-30T10:17:28;10.10;99.90
21895;DHT22;11112;51.270;7.224;2024-01-30T10:19:56;10.10;99.90
21895;DHT22;11112;51.270;7.224;2024-01-30T10:22:23;10.10;99.90
21895;DHT22;11112;51.270;7.224;2024-01-30T10:24:51;10.20;99.90
21895;DHT22;11112;51.270;7.224;2024-01-30T10:27:25;10.20;99.90
21895;DHT22;11112;51.270;7.224;2024-01-30T10:29:52;10.20;99.90
21895;DHT22;11112;51.270;7.224;2024-01-30T10:32:20;10.30;99.90
21895;DHT22;11112;51.270;7.224;2024-01-30T10:34:47;10.30;99.90
21895;DHT22;11112;51.270;7.224;2024-01-30T10:37:15;10.30;99.90
21895;DHT22;11112;51.270;7.224;2024-01-30T10:39:44;10.30;99.90
21895;DHT22;11112;51.270;7.224;2024-01-30T10:42:14;10.40;99.90
21895;DHT22;11112;51.270;7.224;2024-01-30T10:44:48;10.40;99.90
21895;DHT22;11112;51.270;7.224;2024-01-30T10:47:26;10.40;99.90
21895;DHT22;11112;51.270;7.224;2024-01-30T10:49:54;10.50;99.90
21895;DHT22;11112;51.270;7.224;2024-01-30T10:52:24;10.50;99.90
21895;DHT22;11112;51.270;7.224;2024-01-30T10:54:58;10.50;99.90
21895;DHT22;11112;51.270;7.224;2024-01-30T10:57:27;10.50;99.90
21895;DHT22;11112;51.270;7.224;2024-01-30T10:59:56;10.50;99.90
21895;DHT22;11112;51.270;7.224;2024-01-30T11:02:24;10.60;99.90
21895;DHT22;11112;51.270;7.224;2024-01-30T11:04:55;10.60;99.90
21895;DHT22;11112;51.270;7.224;2024-01-30T11:07:25;10.60;99.90
21895;DHT22;11112;51.270;7.224;2024-01-30T11:09:59;10.60;99.90
21895;DHT22;11112;51.270;7.224;2024-01-30T11:12:30;10.70;99.90
21895;DHT22;11112;51.270;7.224;2024-01-30T11:15:03;10.70;99.90
21895;DHT22;11112;51.270;7.224;2024-01-30T11:17:44;10.70;99.90
21895;DHT22;11112;51.270;7.224;2024-01-30T11:20:14;10.70;99.90
21895;DHT22;11112;51.270;7.224;2024-01-30T11:22:43;10.70;99.90
21895;DHT22;11112;51.270;7.224;2024-01-30T11:25:12;10.80;99.90
21895;DHT22;11112;51.270;7.224;2024-01-30T11:27:41;10.80;99.90
21895;DHT22;11112;51.270;7.224;2024-01-30T11:30:10;10.80;99.90
21895;DHT22;11112;51.270;7.224;2024-01-30T11:32:37;10.90;99.90
21895;DHT22;11112;51.270;7.224;2024-01-30T11:35:05;10.90;99.90
21895;DHT22;11112;51.270;7.224;2024-01-30T11:37:37;10.90;99.90
21895;DHT22;11112;51.270;7.224;2024-01-30T11:40:06;10.90;99.90
21895;DHT22;11112;51.270;7.224;2024-01-30T11:42:34;10.90;99.90
21895;DHT22;11112;51.270;7.224;2024-01-30T11:45:07;11.00;99.90
21895;DHT22;11112;51.270;7.224;2024-01-30T11:47:35;11.00;99.90
21895;DHT22;11112;51.270;7.224;2024-01-30T11:50:03;11.00;99.90
21895;DHT22;11112;51.270;7.224;2024-01-30T11:52:32;11.00;99.90
21895;DHT22;11112;51.270;7.224;2024-01-30T11:55:00;11.00;99.90
21895;DHT22;11112;51.270;7.224;2024-01-30T11:57:28;11.00;99.90
21895;DHT22;11112;51.270;7.224;2024-01-30T11:59:55;11.10;99.90
21895;DHT22;11112;51.270;7.224;2024-01-30T12:02:23;11.10;99.90
21895;DHT22;11112;51.270;7.224;2024-01-30T12:04:50;11.10;99.90
21895;DHT22;11112;51.270;7.224;2024-01-30T12:07:18;11.10;99.90
21895;DHT22;11112;51.270;7.224;2024-01-30T12:09:52;11.20;99.90
21895;DHT22;11112;51.270;7.224;2024-01-30T12:12:21;11.20;99.90
21895;DHT22;11112;51.270;7.224;2024-01-30T12:14:49;11.20;99.90
21895;DHT22;11112;51.270;7.224;2024-01-30T12:17:26;11.20;99.90
21895;DHT22;11112;51.270;7.224;2024-01-30T12:20:03;11.20;99.90
21895;DHT22;11112;51.270;7.224;2024-01-30T12:22:33;11.20;99.90
21895;DHT22;11112;51.270;7.224;2024-01-30T12:25:07;11.20;99.90
21895;DHT22;11112;51.270;7.224;2024-01-30T12:27:36;11.20;99.90
21895;DHT22;11112;51.270;7.224;2024-01-30T12:30:05;11.20;99.90
21895;DHT22;11112;51.270;7.224;2024-01-30T12:32:36;11.20;99.90
21895;DHT22;11112;51.270;7.224;2024-01-30T12:35:07;11.20;99.90
21895;DHT22;11112;51.270;7.224;2024-01-30T12:37:34;11.20;99.90
21895;DHT22;11112;51.270;7.224;2024-01-30T12:40:02;11.20;99.90
21895;DHT22;11112;51.270;7.224;2024-01-30T12:42:29;11.20;99.90
21895;DHT22;11112;51.270;7.224;2024-01-30T12:44:57;11.20;99.90
21895;DHT22;11112;51.270;7.224;2024-01-30T12:47:24;11.20;99.90
21895;DHT22;11112;51.270;7.224;2024-01-30T12:49:53;11.20;99.90
21895;DHT22;11112;51.270;7.224;2024-01-30T12:52:21;11.20;99.90
21895;DHT22;11112;51.270;7.224;2024-01-30T12:54:49;11.20;99.90
21895;DHT22;11112;51.270;7.224;2024-01-30T12:57:16;11.20;99.90
21895;DHT22;11112;51.270;7.224;2024-01-30T12:59:44;11.20;99.90
21895;DHT22;11112;51.270;7.224;2024-01-30T13:02:12;11.20;99.90
21895;DHT22;11112;51.270;7.224;2024-01-30T13:04:40;11.20;99.90
21895;DHT22;11112;51.270;7.224;2024-01-30T13:07:08;11.20;99.90
21895;DHT22;11112;51.270;7.224;2024-01-30T13:09:35;11.20;99.90
21895;DHT22;11112;51.270;7.224;2024-01-30T13:12:04;11.20;99.90
21895;DHT22;11112;51.270;7.224;2024-01-30T13:14:31;11.20;99.90
21895;DHT22;11112;51.270;7.224;2024-01-30T13:16:58;11.20;99.90
21895;DHT22;11112;51.270;7.224;2024-01-30T13:19:25;11.20;99.90
21895;DHT22;11112;51.270;7.224;2024-01-30T13:21:52;11.10;99.90
21895;DHT22;11112;51.270;7.224;2024-01-30T13:24:21;11.20;99.90
21895;DHT22;11112;51.270;7.224;2024-01-30T13:26:48;11.10;99.90
21895;DHT22;11112;51.270;7.224;2024-01-30T13:29:15;11.10;99.90
21895;DHT22;11112;51.270;7.224;2024-01-30T13:31:43;11.10;99.90
21895;DHT22;11112;51.270;7.224;2024-01-30T13:34:12;11.10;99.90
21895;DHT22;11112;51.270;7.224;2024-01-30T13:36:40;11.10;99.90
21895;DHT22;11112;51.270;7.224;2024-01-30T13:39:09;11.10;99.90
21895;DHT22;11112;51.270;7.224;2024-01-30T13:41:40;11.20;99.90
21895;DHT22;11112;51.270;7.224;2024-01-30T13:44:08;11.10;99.90
21895;DHT22;11112;51.270;7.224;2024-01-30T13:46:36;11.10;99.90
21895;DHT22;11112;51.270;7.224;2024-01-30T13:49:04;11.10;99.90
21895;DHT22;11112;51.270;7.224;2024-01-30T13:51:32;11.10;99.90
21895;DHT22;11112;51.270;7.224;2024-01-30T13:53:59;11.10;99.90
21895;DHT22;11112;51.270;7.224;2024-01-30T13:56:26;11.10;99.90
21895;DHT22;11112;51.270;7.224;2024-01-30T13:58:55;11.10;99.90
21895;DHT22;11112;51.270;7.224;2024-01-30T14:01:22;11.10;99.90
21895;DHT22;11112;51.270;7.224;2024-01-30T14:03:49;11.10;99.90
21895;DHT22;11112;51.270;7.224;2024-01-30T14:06:17;11.10;99.90
21895;DHT22;11112;51.270;7.224;2024-01-30T14:08:44;11.10;99.90
21895;DHT22;11112;51.270;7.224;2024-01-30T14:11:14;11.10;99.90
21895;DHT22;11112;51.270;7.224;2024-01-30T14:13:41;11.10;99.90
21895;DHT22;11112;51.270;7.224;2024-01-30T14:16:10;11.10;99.90
21895;DHT22;11112;51.270;7.224;2024-01-30T14:18:37;11.10;99.90
21895;DHT22;11112;51.270;7.224;2024-01-30T14:21:04;11.10;99.90
21895;DHT22;11112;51.270;7.224;2024-01-30T14:23:33;11.10;99.90
21895;DHT22;11112;51.270;7.224;2024-01-30T14:26:00;11.10;99.90
21895;DHT22;11112;51.270;7.224;2024-01-30T14:28:27;11.10;99.90
21895;DHT22;11112;51.270;7.224;2024-01-30T14:30:54;11.10;99.90
21895;DHT22;11112;51.270;7.224;2024-01-30T14:33:23;11.10;99.90
21895;DHT22;11112;51.270;7.224;2024-01-30T14:35:51;11.20;99.90
21895;DHT22;11112;51.270;7.224;2024-01-30T14:38:18;11.20;99.90
21895;DHT22;11112;51.270;7.224;2024-01-30T14:40:45;11.20;99.90
21895;DHT22;11112;51.270;7.224;2024-01-30T14:43:12;11.20;99.90
21895;DHT22;11112;51.270;7.224;2024-01-30T14:45:40;11.20;99.90
21895;DHT22;11112;51.270;7.224;2024-01-30T14:48:08;11.20;99.90
21895;DHT22;11112;51.270;7.224;2024-01-30T14:50:36;11.20;99.90
21895;DHT22;11112;51.270;7.224;2024-01-30T14:53:03;11.20;99.90
21895;DHT22;11112;51.270;7.224;2024-01-30T14:55:31;11.20;99.90
21895;DHT22;11112;51.270;7.224;2024-01-30T14:57:58;11.20;99.90
21895;DHT22;11112;51.270;7.224;2024-01-30T15:00:27;11.20;99.90
21895;DHT22;11112;51.270;7.224;2024-01-30T15:02:54;11.20;99.90
21895;DHT22;11112;51.270;7.224;2024-01-30T15:05:21;11.20;99.90
21895;DHT22;11112;51.270;7.224;2024-01-30T15:07:50;11.10;99.90
21895;DHT22;11112;51.270;7.224;2024-01-30T15:10:17;11.20;99.90
21895;DHT22;11112;51.270;7.224;2024-01-30T15:12:44;11.20;99.90
21895;DHT22;11112;51.270;7.224;2024-01-30T15:15:11;11.20;99.90
21895;DHT22;11112;51.270;7.224;2024-01-30T15:17:38;11.20;99.90
21895;DHT22;11112;51.270;7.224;2024-01-30T15:20:06;11.10;99.90
21895;DHT22;11112;51.270;7.224;2024-01-30T15:22:33;11.20;99.90
21895;DHT22;11112;51.270;7.224;2024-01-30T15:25:02;11.20;99.90
21895;DHT22;11112;51.270;7.224;2024-01-30T15:27:29;11.20;99.90
21895;DHT22;11112;51.270;7.224;2024-01-30T15:29:56;11.20;99.90
21895;DHT22;11112;51.270;7.224;2024-01-30T15:32:24;11.20;99.90
21895;DHT22;11112;51.270;7.224;2024-01-30T15:34:51;11.20;99.90
21895;DHT22;11112;51.270;7.224;2024-01-30T15:37:20;11.20;99.90
21895;DHT22;11112;51.270;7.224;2024-01-30T15:39:47;11.20;99.90
21895;DHT22;11112;51.270;7.224;2024-01-30T15:42:15;11.20;99.90
21895;DHT22;11112;51.270;7.224;2024-01-30T15:44:43;11.20;99.90